sensor_id;sensor_type;location;lat;lon;timestamp;pressure;altitude;pressure_sealevel;temperature;humidity
11001;BME280;5553;48.506;8.870;2023-03-14T00:01:22;95097.97;;;8.07;100.00
11001;BME280;5553;48.506;8.870;2023-03-14T00:03:53;95100.34;;;8.09;100.00
11001;BME280;5553;48.506;8.870;2023-03-14T00:06:22;95119.16;;;8.06;100.00
11001;BME280;5553;48.506;8.870;2023-03-14T00:08:51;95102.19;;;8.08;100.00
11001;BME280;5553;48.506;8.870;2023-03-14T00:11:21;95098.00;;;8.01;100.00
11001;BME280;5553;48.506;8.870;2023-03-14T00:13:50;95076.56;;;8.04;100.00
11001;BME280;5553;48.506;8.870;2023-03-14T00:16:20;95078.97;;;8.05;100.00
11001;BME280;5553;48.506;8.870;2023-03-14T00:18:49;95073.72;;;8.05;100.00
11001;BME280;5553;48.506;8.870;2023-03-14T00:21:20;95061.09;;;8.21;100.00
11001;BME280;5553;48.506;8.870;2023-03-14T00:23:48;95061.53;;;8.18;100.00
11001;BME280;5553;48.506;8.870;2023-03-14T00:26:18;95058.75;;;8.06;100.00
11001;BME280;5553;48.506;8.870;2023-03-14T00:28:50;95065.47;;;7.95;100.00
11001;BME280;5553;48.506;8.870;2023-03-14T00:31:19;95066.31;;;7.89;100.00
11001;BME280;5553;48.506;8.870;2023-03-14T00:33:47;95078.06;;;7.87;100.00
11001;BME280;5553;48.506;8.870;2023-03-14T00:36:17;95080.22;;;7.96;100.00
11001;BME280;5553;48.506;8.870;2023-03-14T00:38:49;95086.84;;;8.05;100.00
11001;BME280;5553;48.506;8.870;2023-03-14T00:41:19;95080.16;;;8.10;100.00
11001;BME280;5553;48.506;8.870;2023-03-14T00:43:48;95073.72;;;8.05;100.00
11001;BME280;5553;48.506;8.870;2023-03-14T00:46:18;95075.75;;;8.03;100.00
11001;BME280;5553;48.506;8.870;2023-03-14T00:48:47;95080.75;;;8.12;100.00
11001;BME280;5553;48.506;8.870;2023-03-14T00:51:15;95083.63;;;8.03;100.00
11001;BME280;5553;48.506;8.870;2023-03-14T00:53:43;95081.34;;;8.14;100.00
11001;BME280;5553;48.506;8.870;2023-03-14T00:56:14;95074.47;;;8.13;100.00
11001;BME280;5553;48.506;8.870;2023-03-14T00:58:42;95075.69;;;8.10;100.00
11001;BME280;5553;48.506;8.870;2023-03-14T01:01:14;95068.81;;;8.16;100.00
11001;BME280;5553;48.506;8.870;2023-03-14T01:03:43;95076.09;;;8.14;100.00
11001;BME280;5553;48.506;8.870;2023-03-14T01:06:13;95060.75;;;8.11;100.00
11001;BME280;5553;48.506;8.870;2023-03-14T01:08:41;95060.91;;;8.16;100.00
11001;BME280;5553;48.506;8.870;2023-03-14T01:11:14;95034.41;;;8.24;100.00
11001;BME280;5553;48.506;8.870;2023-03-14T01:13:43;95028.56;;;8.22;100.00
11001;BME280;5553;48.506;8.870;2023-03-14T01:16:12;95014.06;;;8.13;100.00
11001;BME280;5553;48.506;8.870;2023-03-14T01:18:42;95008.22;;;8.11;100.00
11001;BME280;5553;48.506;8.870;2023-03-14T01:21:13;95007.88;;;8.00;100.00
11001;BME280;5553;48.506;8.870;2023-03-14T01:23:42;95011.69;;;8.04;100.00
11001;BME280;5553;48.506;8.870;2023-03-14T01:26:11;94994.88;;;8.12;100.00
11001;BME280;5553;48.506;8.870;2023-03-14T01:28:42;94996.50;;;8.06;100.00
11001;BME280;5553;48.506;8.870;2023-03-14T01:31:10;94986.44;;;8.03;100.00
11001;BME280;5553;48.506;8.870;2023-03-14T01:33:39;94982.00;;;8.04;100.00
11001;BME280;5553;48.506;8.870;2023-03-14T01:36:10;94980.78;;;8.00;100.00
11001;BME280;5553;48.506;8.870;2023-03-14T01:38:39;94980.63;;;7.95;100.00
11001;BME280;5553;48.506;8.870;2023-03-14T01:41:12;94981.47;;;7.89;100.00
11001;BME280;5553;48.506;8.870;2023-03-14T01:43:43;94976.25;;;7.82;100.00
11001;BME280;5553;48.506;8.870;2023-03-14T01:46:22;94964.75;;;7.83;100.00
11001;BME280;5553;48.506;8.870;2023-03-14T01:48:57;94969.56;;;7.86;100.00
11001;BME280;5553;48.506;8.870;2023-03-14T01:51:31;94966.38;;;7.84;100.00
11001;BME280;5553;48.506;8.870;2023-03-14T01:54:08;94962.97;;;7.77;100.00
11001;BME280;5553;48.506;8.870;2023-03-14T01:56:39;94966.81;;;7.74;100.00
11001;BME280;5553;48.506;8.870;2023-03-14T01:59:12;94970.88;;;7.70;100.00
11001;BME280;5553;48.506;8.870;2023-03-14T02:01:43;94966.44;;;7.71;100.00
11001;BME280;5553;48.506;8.870;2023-03-14T02:04:13;94963.22;;;7.69;100.00
11001;BME280;5553;48.506;8.870;2023-03-14T02:06:48;94964.22;;;7.68;100.00
11001;BME280;5553;48.506;8.870;2023-03-14T02:09:18;94959.22;;;7.66;100.00
11001;BME280;5553;48.506;8.870;2023-03-14T02:11:46;94947.47;;;7.69;100.00
11001;BME280;5553;48.506;8.870;2023-03-14T02:14:25;94941.03;;;7.65;100.00
11001;BME280;5553;48.506;8.870;2023-03-14T02:16:56;94942.44;;;7.67;100.00
11001;BME280;5553;48.506;8.870;2023-03-14T02:19:32;94934.97;;;7.64;100.00
11001;BME280;5553;48.506;8.870;2023-03-14T02:22:08;94937.38;;;7.66;100.00
11001;BME280;5553;48.506;8.870;2023-03-14T02:24:43;94936.97;;;7.69;100.00
11001;BME280;5553;48.506;8.870;2023-03-14T02:27:17;94934.56;;;7.67;100.00
11001;BME280;5553;48.506;8.870;2023-03-14T02:29:49;94939.22;;;7.58;100.00
11001;BME280;5553;48.506;8.870;2023-03-14T02:32:20;94945.22;;;7.72;100.00
11001;BME280;5553;48.506;8.870;2023-03-14T02:34:53;94919.84;;;7.66;100.00
11001;BME280;5553;48.506;8.870;2023-03-14T02:37:24;94936.72;;;7.77;100.00
11001;BME280;5553;48.506;8.870;2023-03-14T02:39:53;94932.91;;;7.73;100.00
11001;BME280;5553;48.506;8.870;2023-03-14T02:42:24;94918.31;;;7.83;100.00
11001;BME280;5553;48.506;8.870;2023-03-14T02:44:54;94903.84;;;7.68;100.00
11001;BME280;5553;48.506;8.870;2023-03-14T02:47:27;94895.59;;;7.64;100.00
11001;BME280;5553;48.506;8.870;2023-03-14T02:50:01;94889.75;;;7.62;100.00
11001;BME280;5553;48.506;8.870;2023-03-14T02:52:30;94878.25;;;7.63;100.00
11001;BME280;5553;48.506;8.870;2023-03-14T02:54:59;94884.31;;;7.64;100.00
11001;BME280;5553;48.506;8.870;2023-03-14T02:57:29;94871.56;;;7.67;100.00
11001;BME280;5553;48.506;8.870;2023-03-14T02:59:58;94860.41;;;7.72;100.00
11001;BME280;5553;48.506;8.870;2023-03-14T03:02:26;94837.09;;;7.82;100.00
11001;BME280;5553;48.506;8.870;2023-03-14T03:04:55;94823.34;;;7.62;100.00
11001;BME280;5553;48.506;8.870;2023-03-14T03:07:23;94807.00;;;7.59;100.00
11001;BME280;5553;48.506;8.870;2023-03-14T03:09:52;94808.06;;;7.52;100.00
11001;BME280;5553;48.506;8.870;2023-03-14T03:12:20;94801.59;;;7.54;100.00
11001;BME280;5553;48.506;8.870;2023-03-14T03:14:51;94795.31;;;7.55;100.00
11001;BME280;5553;48.506;8.870;2023-03-14T03:17:19;94793.34;;;7.51;100.00
11001;BME280;5553;48.506;8.870;2023-03-14T03:19:47;94782.84;;;7.51;100.00
11001;BME280;5553;48.506;8.870;2023-03-14T03:22:16;94790.50;;;7.52;100.00
11001;BME280;5553;48.506;8.870;2023-03-14T03:24:44;94788.19;;;7.38;100.00
11001;BME280;5553;48.506;8.870;2023-03-14T03:27:12;94778.44;;;7.45;100.00
11001;BME280;5553;48.506;8.870;2023-03-14T03:29:40;94773.25;;;7.38;100.00
11001;BME280;5553;48.506;8.870;2023-03-14T03:32:11;94760.06;;;7.20;100.00
11001;BME280;5553;48.506;8.870;2023-03-14T03:34:39;94758.38;;;7.32;100.00
11001;BME280;5553;48.506;8.870;2023-03-14T03:37:08;94760.06;;;7.20;100.00
11001;BME280;5553;48.506;8.870;2023-03-14T03:39:36;94746.63;;;7.34;100.00
11001;BME280;5553;48.506;8.870;2023-03-14T03:42:04;94738.66;;;7.23;100.00
11001;BME280;5553;48.506;8.870;2023-03-14T03:44:32;94729.34;;;7.27;100.00
11001;BME280;5553;48.506;8.870;2023-03-14T03:47:01;94734.00;;;7.25;100.00
11001;BME280;5553;48.506;8.870;2023-03-14T03:49:32;94730.38;;;7.26;100.00
11001;BME280;5553;48.506;8.870;2023-03-14T03:52:00;94728.25;;;7.09;100.00
11001;BME280;5553;48.506;8.870;2023-03-14T03:54:29;94725.03;;;7.07;100.00
11001;BME280;5553;48.506;8.870;2023-03-14T03:56:57;94727.88;;;7.06;100.00
11001;BME280;5553;48.506;8.870;2023-03-14T03:59:25;94740.31;;;7.17;100.00
11001;BME280;5553;48.506;8.870;2023-03-14T04:01:54;94729.47;;;7.07;100.00
11001;BME280;5553;48.506;8.870;2023-03-14T04:04:22;94740.19;;;7.05;100.00
11001;BME280;5553;48.506;8.870;2023-03-14T04:06:53;94736.22;;;6.96;100.00
11001;BME280;5553;48.506;8.870;2023-03-14T04:09:21;94749.31;;;6.96;100.00
11001;BME280;5553;48.506;8.870;2023-03-14T04:11:49;94738.03;;;6.96;100.00
11001;BME280;5553;48.506;8.870;2023-03-14T04:14:17;94739.94;;;6.82;100.00
11001;BME280;5553;48.506;8.870;2023-03-14T04:16:46;94727.84;;;6.81;100.00
11001;BME280;5553;48.506;8.870;2023-03-14T04:19:14;94735.28;;;6.84;100.00
11001;BME280;5553;48.506;8.870;2023-03-14T04:21:42;94729.13;;;6.97;100.00
11001;BME280;5553;48.506;8.870;2023-03-14T04:24:14;94722.00;;;6.79;100.00
11001;BME280;5553;48.506;8.870;2023-03-14T04:26:43;94722.84;;;6.73;100.00
11001;BME280;5553;48.506;8.870;2023-03-14T04:29:11;94709.13;;;6.77;100.00
11001;BME280;5553;48.506;8.870;2023-03-14T04:31:39;94717.19;;;6.76;100.00
11001;BME280;5553;48.506;8.870;2023-03-14T04:34:08;94699.84;;;6.75;100.00
11001;BME280;5553;48.506;8.870;2023-03-14T04:36:36;94710.75;;;6.72;100.00
11001;BME280;5553;48.506;8.870;2023-03-14T04:39:04;94712.38;;;6.66;100.00
11001;BME280;5553;48.506;8.870;2023-03-14T04:41:35;94703.34;;;6.62;100.00
11001;BME280;5553;48.506;8.870;2023-03-14T04:44:04;94702.28;;;6.70;100.00
11001;BME280;5553;48.506;8.870;2023-03-14T04:46:32;94695.88;;;6.65;100.00
11001;BME280;5553;48.506;8.870;2023-03-14T04:49:00;94689.03;;;6.64;100.00
11001;BME280;5553;48.506;8.870;2023-03-14T04:51:29;94679.72;;;6.69;100.00
11001;BME280;5553;48.506;8.870;2023-03-14T04:53:57;94688.84;;;6.59;100.00
11001;BME280;5553;48.506;8.870;2023-03-14T04:56:25;94676.59;;;6.53;100.00
11001;BME280;5553;48.506;8.870;2023-03-14T04:58:56;94668.94;;;6.52;100.00
11001;BME280;5553;48.506;8.870;2023-03-14T05:01:24;94662.22;;;6.62;100.00
11001;BME280;5553;48.506;8.870;2023-03-14T05:03:53;94652.19;;;6.53;100.00
11001;BME280;5553;48.506;8.870;2023-03-14T05:06:21;94646.50;;;6.62;100.00
11001;BME280;5553;48.506;8.870;2023-03-14T05:08:49;94641.94;;;6.51;100.00
11001;BME280;5553;48.506;8.870;2023-03-14T05:11:17;94634.19;;;6.63;100.00
11001;BME280;5553;48.506;8.870;2023-03-14T05:13:46;94626.22;;;6.51;100.00
11001;BME280;5553;48.506;8.870;2023-03-14T05:16:16;94632.59;;;6.87;100.00
11001;BME280;5553;48.506;8.870;2023-03-14T05:18:45;94630.56;;;6.64;100.00
11001;BME280;5553;48.506;8.870;2023-03-14T05:21:13;94628.91;;;6.70;100.00
11001;BME280;5553;48.506;8.870;2023-03-14T05:23:41;94627.03;;;6.77;100.00
11001;BME280;5553;48.506;8.870;2023-03-14T05:26:09;94630.19;;;6.60;100.00
11001;BME280;5553;48.506;8.870;2023-03-14T05:28:38;94620.38;;;6.81;100.00
11001;BME280;5553;48.506;8.870;2023-03-14T05:31:07;94609.81;;;6.62;100.00
11001;BME280;5553;48.506;8.870;2023-03-14T05:33:37;94604.47;;;6.51;100.00
11001;BME280;5553;48.506;8.870;2023-03-14T05:36:07;94613.72;;;6.53;100.00
11001;BME280;5553;48.506;8.870;2023-03-14T05:38:35;94622.53;;;6.59;100.00
11001;BME280;5553;48.506;8.870;2023-03-14T05:41:04;94615.44;;;6.66;100.00
11001;BME280;5553;48.506;8.870;2023-03-14T05:43:32;94607.38;;;6.68;100.00
11001;BME280;5553;48.506;8.870;2023-03-14T05:46:01;94598.34;;;6.63;100.00
11001;BME280;5553;48.506;8.870;2023-03-14T05:48:29;94587.28;;;6.80;100.00
11001;BME280;5553;48.506;8.870;2023-03-14T05:51:00;94583.69;;;6.81;100.00
11001;BME280;5553;48.506;8.870;2023-03-14T05:53:28;94583.59;;;6.62;100.00
11001;BME280;5553;48.506;8.870;2023-03-14T05:55:57;94575.56;;;6.64;100.00
11001;BME280;5553;48.506;8.870;2023-03-14T05:58:25;94572.88;;;6.71;100.00
11001;BME280;5553;48.506;8.870;2023-03-14T06:00:53;94566.56;;;6.78;100.00
11001;BME280;5553;48.506;8.870;2023-03-14T06:03:21;94564.19;;;6.95;100.00
11001;BME280;5553;48.506;8.870;2023-03-14T06:05:50;94558.53;;;6.98;100.00
11001;BME280;5553;48.506;8.870;2023-03-14T06:08:21;94566.97;;;7.00;100.00
11001;BME280;5553;48.506;8.870;2023-03-14T06:10:50;94556.41;;;7.07;100.00
11001;BME280;5553;48.506;8.870;2023-03-14T06:13:18;94546.94;;;7.24;100.00
11001;BME280;5553;48.506;8.870;2023-03-14T06:15:47;94539.38;;;6.98;100.00
11001;BME280;5553;48.506;8.870;2023-03-14T06:18:15;94540.53;;;7.02;100.00
11001;BME280;5553;48.506;8.870;2023-03-14T06:20:43;94537.34;;;7.18;100.00
11001;BME280;5553;48.506;8.870;2023-03-14T06:23:11;94541.00;;;7.35;100.00
11001;BME280;5553;48.506;8.870;2023-03-14T06:25:42;94532.47;;;7.22;100.00
11001;BME280;5553;48.506;8.870;2023-03-14T06:28:10;94534.06;;;7.23;100.00
11001;BME280;5553;48.506;8.870;2023-03-14T06:30:39;94522.28;;;7.32;100.00
11001;BME280;5553;48.506;8.870;2023-03-14T06:33:07;94518.56;;;7.40;100.00
11001;BME280;5553;48.506;8.870;2023-03-14T06:35:35;94525.34;;;7.29;100.00
11001;BME280;5553;48.506;8.870;2023-03-14T06:38:04;94521.03;;;7.53;100.00
11001;BME280;5553;48.506;8.870;2023-03-14T06:40:32;94505.31;;;7.65;100.00
11001;BME280;5553;48.506;8.870;2023-03-14T06:43:03;94515.69;;;7.59;100.00
11001;BME280;5553;48.506;8.870;2023-03-14T06:45:31;94520.63;;;7.68;100.00
11001;BME280;5553;48.506;8.870;2023-03-14T06:48:00;94510.16;;;7.98;100.00
11001;BME280;5553;48.506;8.870;2023-03-14T06:50:28;94513.81;;;7.97;100.00
11001;BME280;5553;48.506;8.870;2023-03-14T06:52:56;94519.50;;;7.94;100.00
11001;BME280;5553;48.506;8.870;2023-03-14T06:55:24;94509.16;;;7.80;100.00
11001;BME280;5553;48.506;8.870;2023-03-14T06:57:53;94512.34;;;7.82;100.00
11001;BME280;5553;48.506;8.870;2023-03-14T07:00:24;94505.16;;;8.08;100.00
11001;BME280;5553;48.506;8.870;2023-03-14T07:02:53;94504.72;;;8.11;100.00
11001;BME280;5553;48.506;8.870;2023-03-14T07:05:21;94504.91;;;7.98;100.00
11001;BME280;5553;48.506;8.870;2023-03-14T07:07:49;94501.97;;;8.60;100.00
11001;BME280;5553;48.506;8.870;2023-03-14T07:10:18;94492.81;;;8.74;100.00
11001;BME280;5553;48.506;8.870;2023-03-14T07:12:46;94486.88;;;8.67;100.00
11001;BME280;5553;48.506;8.870;2023-03-14T07:15:14;94489.84;;;8.70;100.00
11001;BME280;5553;48.506;8.870;2023-03-14T07:17:45;94479.09;;;8.95;100.00
11001;BME280;5553;48.506;8.870;2023-03-14T07:20:14;94487.09;;;9.00;100.00
11001;BME280;5553;48.506;8.870;2023-03-14T07:22:42;94497.16;;;9.04;100.00
11001;BME280;5553;48.506;8.870;2023-03-14T07:25:11;94501.97;;;8.95;100.00
11001;BME280;5553;48.506;8.870;2023-03-14T07:27:39;94494.19;;;8.88;100.00
11001;BME280;5553;48.506;8.870;2023-03-14T07:30:09;94508.50;;;8.92;100.00
11001;BME280;5553;48.506;8.870;2023-03-14T07:32:37;94525.75;;;8.88;100.00
11001;BME280;5553;48.506;8.870;2023-03-14T07:35:09;94519.47;;;8.89;100.00
11001;BME280;5553;48.506;8.870;2023-03-14T07:37:37;94522.44;;;9.05;100.00
11001;BME280;5553;48.506;8.870;2023-03-14T07:40:06;94504.81;;;9.05;100.00
11001;BME280;5553;48.506;8.870;2023-03-14T07:42:35;94508.91;;;9.36;100.00
11001;BME280;5553;48.506;8.870;2023-03-14T07:45:05;94502.50;;;9.44;100.00
11001;BME280;5553;48.506;8.870;2023-03-14T07:47:33;94503.75;;;9.82;100.00
11001;BME280;5553;48.506;8.870;2023-03-14T07:50:02;94515.81;;;9.94;100.00
11001;BME280;5553;48.506;8.870;2023-03-14T07:52:33;94507.34;;;9.64;100.00
11001;BME280;5553;48.506;8.870;2023-03-14T07:55:01;94516.66;;;9.55;100.00
11001;BME280;5553;48.506;8.870;2023-03-14T07:57:29;94524.09;;;9.46;100.00
11001;BME280;5553;48.506;8.870;2023-03-14T07:59:58;94519.63;;;9.58;99.41
11001;BME280;5553;48.506;8.870;2023-03-14T08:02:26;94544.19;;;9.64;100.00
11001;BME280;5553;48.506;8.870;2023-03-14T08:04:54;94533.91;;;9.62;100.00
11001;BME280;5553;48.506;8.870;2023-03-14T08:07:22;94527.06;;;9.61;100.00
11001;BME280;5553;48.506;8.870;2023-03-14T08:09:53;94526.16;;;9.56;99.20
11001;BME280;5553;48.506;8.870;2023-03-14T08:12:21;94527.06;;;9.49;100.00
11001;BME280;5553;48.506;8.870;2023-03-14T08:14:50;94555.47;;;9.47;100.00
11001;BME280;5553;48.506;8.870;2023-03-14T08:17:18;94541.28;;;9.48;100.00
11001;BME280;5553;48.506;8.870;2023-03-14T08:19:47;94545.28;;;9.39;100.00
11001;BME280;5553;48.506;8.870;2023-03-14T08:22:15;94533.75;;;9.40;98.88
11001;BME280;5553;48.506;8.870;2023-03-14T08:24:43;94528.69;;;9.51;96.75
11001;BME280;5553;48.506;8.870;2023-03-14T08:27:14;94534.97;;;9.49;96.77
11001;BME280;5553;48.506;8.870;2023-03-14T08:29:42;94532.00;;;9.46;98.51
11001;BME280;5553;48.506;8.870;2023-03-14T08:32:11;94558.44;;;9.39;100.00
11001;BME280;5553;48.506;8.870;2023-03-14T08:34:39;94571.47;;;9.46;98.56
11001;BME280;5553;48.506;8.870;2023-03-14T08:37:07;94569.53;;;9.30;99.23
11001;BME280;5553;48.506;8.870;2023-03-14T08:39:36;94555.03;;;9.15;100.00
11001;BME280;5553;48.506;8.870;2023-03-14T08:42:04;94570.13;;;9.08;100.00
11001;BME280;5553;48.506;8.870;2023-03-14T08:44:35;94586.03;;;9.13;100.00
11001;BME280;5553;48.506;8.870;2023-03-14T08:47:04;94602.38;;;9.04;100.00
11001;BME280;5553;48.506;8.870;2023-03-14T08:49:32;94594.72;;;9.02;100.00
11001;BME280;5553;48.506;8.870;2023-03-14T08:52:01;94587.28;;;8.99;100.00
11001;BME280;5553;48.506;8.870;2023-03-14T08:54:29;94595.53;;;9.02;100.00
11001;BME280;5553;48.506;8.870;2023-03-14T08:56:57;94598.72;;;8.93;100.00
11001;BME280;5553;48.506;8.870;2023-03-14T08:59:26;94594.94;;;9.00;100.00
11001;BME280;5553;48.506;8.870;2023-03-14T09:01:57;94588.78;;;9.07;100.00
11001;BME280;5553;48.506;8.870;2023-03-14T09:04:28;94591.28;;;9.01;100.00
11001;BME280;5553;48.506;8.870;2023-03-14T09:06:57;94588.78;;;9.07;100.00
11001;BME280;5553;48.506;8.870;2023-03-14T09:09:26;94592.31;;;9.12;100.00
11001;BME280;5553;48.506;8.870;2023-03-14T09:11:55;94589.56;;;9.19;100.00
11001;BME280;5553;48.506;8.870;2023-03-14T09:14:24;94591.28;;;9.25;99.42
11001;BME280;5553;48.506;8.870;2023-03-14T09:16:52;94566.47;;;9.21;100.00
11001;BME280;5553;48.506;8.870;2023-03-14T09:19:23;94601.22;;;9.23;100.00
11001;BME280;5553;48.506;8.870;2023-03-14T09:21:51;94595.75;;;9.24;100.00
11001;BME280;5553;48.506;8.870;2023-03-14T09:24:20;94615.78;;;9.25;100.00
11001;BME280;5553;48.506;8.870;2023-03-14T09:26:49;94602.84;;;9.24;100.00
11001;BME280;5553;48.506;8.870;2023-03-14T09:29:17;94631.78;;;9.36;100.00
11001;BME280;5553;48.506;8.870;2023-03-14T09:31:45;94619.91;;;9.45;100.00
11001;BME280;5553;48.506;8.870;2023-03-14T09:34:13;94622.97;;;9.54;100.00
11001;BME280;5553;48.506;8.870;2023-03-14T09:36:44;94614.50;;;9.52;100.00
11001;BME280;5553;48.506;8.870;2023-03-14T09:39:13;94600.09;;;9.42;100.00
11001;BME280;5553;48.506;8.870;2023-03-14T09:41:44;94626.28;;;9.49;100.00
11001;BME280;5553;48.506;8.870;2023-03-14T09:44:16;94600.19;;;9.59;100.00
11001;BME280;5553;48.506;8.870;2023-03-14T09:46:50;94623.69;;;9.61;100.00
11001;BME280;5553;48.506;8.870;2023-03-14T09:49:21;94620.78;;;9.74;100.00
11001;BME280;5553;48.506;8.870;2023-03-14T09:51:55;94633.00;;;9.80;100.00
11001;BME280;5553;48.506;8.870;2023-03-14T09:54:35;94620.78;;;9.74;100.00
11001;BME280;5553;48.506;8.870;2023-03-14T09:57:05;94614.00;;;9.90;100.00
11001;BME280;5553;48.506;8.870;2023-03-14T09:59:35;94604.97;;;9.86;100.00
11001;BME280;5553;48.506;8.870;2023-03-14T10:02:14;94597.97;;;9.91;100.00
11001;BME280;5553;48.506;8.870;2023-03-14T10:04:45;94605.97;;;9.96;100.00
11001;BME280;5553;48.506;8.870;2023-03-14T10:07:18;94586.41;;;9.92;99.50
11001;BME280;5553;48.506;8.870;2023-03-14T10:09:49;94602.78;;;9.83;100.00
11001;BME280;5553;48.506;8.870;2023-03-14T10:12:18;94616.97;;;9.93;100.00
11001;BME280;5553;48.506;8.870;2023-03-14T10:14:48;94598.03;;;9.68;100.00
11001;BME280;5553;48.506;8.870;2023-03-14T10:17:20;94621.94;;;9.66;100.00
11001;BME280;5553;48.506;8.870;2023-03-14T10:19:53;94613.22;;;9.66;100.00
11001;BME280;5553;48.506;8.870;2023-03-14T10:22:27;94621.69;;;9.80;100.00
11001;BME280;5553;48.506;8.870;2023-03-14T10:25:00;94622.50;;;9.68;100.00
11001;BME280;5553;48.506;8.870;2023-03-14T10:27:31;94628.16;;;10.01;100.00
11001;BME280;5553;48.506;8.870;2023-03-14T10:30:04;94608.19;;;10.28;100.00
11001;BME280;5553;48.506;8.870;2023-03-14T10:32:34;94619.84;;;10.32;100.00
11001;BME280;5553;48.506;8.870;2023-03-14T10:35:07;94622.41;;;10.15;100.00
11001;BME280;5553;48.506;8.870;2023-03-14T10:37:48;94623.44;;;10.14;100.00
11001;BME280;5553;48.506;8.870;2023-03-14T10:40:19;94643.00;;;10.30;100.00
11001;BME280;5553;48.506;8.870;2023-03-14T10:42:48;94650.38;;;10.16;100.00
11001;BME280;5553;48.506;8.870;2023-03-14T10:45:30;94658.53;;;10.03;100.00
11001;BME280;5553;48.506;8.870;2023-03-14T10:48:05;94662.00;;;9.92;100.00
11001;BME280;5553;48.506;8.870;2023-03-14T10:50:34;94664.41;;;9.70;100.00
11001;BME280;5553;48.506;8.870;2023-03-14T10:53:07;94682.13;;;9.39;100.00
11001;BME280;5553;48.506;8.870;2023-03-14T10:55:41;94709.00;;;9.18;100.00
11001;BME280;5553;48.506;8.870;2023-03-14T10:58:21;94726.72;;;9.11;100.00
11001;BME280;5553;48.506;8.870;2023-03-14T11:00:57;94730.41;;;9.33;100.00
11001;BME280;5553;48.506;8.870;2023-03-14T11:03:29;94723.13;;;9.59;100.00
11001;BME280;5553;48.506;8.870;2023-03-14T11:06:04;94721.97;;;9.43;100.00
11001;BME280;5553;48.506;8.870;2023-03-14T11:08:42;94723.25;;;9.52;100.00
11001;BME280;5553;48.506;8.870;2023-03-14T11:11:18;94730.44;;;9.45;100.00
11001;BME280;5553;48.506;8.870;2023-03-14T11:13:55;94729.56;;;9.09;100.00
11001;BME280;5553;48.506;8.870;2023-03-14T11:16:34;94746.81;;;8.93;100.00
11001;BME280;5553;48.506;8.870;2023-03-14T11:19:17;94752.00;;;8.82;100.00
11001;BME280;5553;48.506;8.870;2023-03-14T11:21:53;94758.41;;;8.56;100.00
11001;BME280;5553;48.506;8.870;2023-03-14T11:24:36;94761.31;;;8.47;100.00
11001;BME280;5553;48.506;8.870;2023-03-14T11:27:13;94765.78;;;8.47;100.00
11001;BME280;5553;48.506;8.870;2023-03-14T11:29:53;94767.59;;;8.65;100.00
11001;BME280;5553;48.506;8.870;2023-03-14T11:32:36;94771.41;;;8.50;100.00
11001;BME280;5553;48.506;8.870;2023-03-14T11:35:17;94767.59;;;8.65;100.00
11001;BME280;5553;48.506;8.870;2023-03-14T11:37:47;94771.16;;;8.70;100.00
11001;BME280;5553;48.506;8.870;2023-03-14T11:40:21;94778.94;;;8.65;100.00
11001;BME280;5553;48.506;8.870;2023-03-14T11:42:54;94774.22;;;8.67;100.00
11001;BME280;5553;48.506;8.870;2023-03-14T11:45:29;94795.56;;;8.59;100.00
11001;BME280;5553;48.506;8.870;2023-03-14T11:48:09;94787.03;;;8.45;100.00
11001;BME280;5553;48.506;8.870;2023-03-14T11:50:38;94785.50;;;8.38;100.00
11001;BME280;5553;48.506;8.870;2023-03-14T11:53:13;94802.22;;;8.43;100.00
11001;BME280;5553;48.506;8.870;2023-03-14T11:55:45;94812.03;;;8.29;100.00
11001;BME280;5553;48.506;8.870;2023-03-14T11:58:19;94823.94;;;8.14;100.00
11001;BME280;5553;48.506;8.870;2023-03-14T12:00:51;94850.06;;;8.02;100.00
11001;BME280;5553;48.506;8.870;2023-03-14T12:03:26;94853.84;;;7.63;100.00
11001;BME280;5553;48.506;8.870;2023-03-14T12:06:02;94878.91;;;7.52;100.00
11001;BME280;5553;48.506;8.870;2023-03-14T12:08:42;94863.31;;;7.32;100.00
11001;BME280;5553;48.506;8.870;2023-03-14T12:11:30;94838.53;;;7.21;100.00
11001;BME280;5553;48.506;8.870;2023-03-14T12:14:00;94861.72;;;7.24;100.00
11001;BME280;5553;48.506;8.870;2023-03-14T12:16:38;94837.91;;;7.26;100.00
11001;BME280;5553;48.506;8.870;2023-03-14T12:21:45;94835.28;;;7.57;100.00
11001;BME280;5553;48.506;8.870;2023-03-14T12:24:18;94839.03;;;7.68;100.00
11001;BME280;5553;48.506;8.870;2023-03-14T12:27:12;94834.66;;;7.87;100.00
11001;BME280;5553;48.506;8.870;2023-03-14T12:33:32;94800.72;;;8.11;100.00
11001;BME280;5553;48.506;8.870;2023-03-14T12:36:51;94811.97;;;8.36;100.00
11001;BME280;5553;48.506;8.870;2023-03-14T12:42:45;94823.91;;;8.75;97.92
11001;BME280;5553;48.506;8.870;2023-03-14T12:45:25;94811.13;;;8.79;95.61
11001;BME280;5553;48.506;8.870;2023-03-14T12:47:55;94808.72;;;8.34;92.64
11001;BME280;5553;48.506;8.870;2023-03-14T12:50:26;94824.25;;;8.42;92.39
11001;BME280;5553;48.506;8.870;2023-03-14T12:53:30;94833.66;;;8.06;92.72
11001;BME280;5553;48.506;8.870;2023-03-14T12:56:07;94848.69;;;7.99;93.18
11001;BME280;5553;48.506;8.870;2023-03-14T12:58:44;94871.38;;;8.37;93.65
11001;BME280;5553;48.506;8.870;2023-03-14T13:01:16;94899.97;;;8.89;94.90
11001;BME280;5553;48.506;8.870;2023-03-14T13:03:47;94895.25;;;8.79;93.58
11001;BME280;5553;48.506;8.870;2023-03-14T13:06:50;94927.19;;;8.83;95.97
11001;BME280;5553;48.506;8.870;2023-03-14T13:12:29;94941.94;;;8.84;95.73
11001;BME280;5553;48.506;8.870;2023-03-14T13:15:15;94918.00;;;8.48;89.76
11001;BME280;5553;48.506;8.870;2023-03-14T13:17:46;94928.13;;;8.70;89.74
11001;BME280;5553;48.506;8.870;2023-03-14T13:20:19;94932.44;;;8.39;88.05
11001;BME280;5553;48.506;8.870;2023-03-14T13:22:50;94949.06;;;7.76;88.60
11001;BME280;5553;48.506;8.870;2023-03-14T13:25:18;94946.38;;;7.45;87.88
11001;BME280;5553;48.506;8.870;2023-03-14T13:27:48;94977.50;;;7.34;89.67
11001;BME280;5553;48.506;8.870;2023-03-14T13:30:24;94985.63;;;7.20;89.18
11001;BME280;5553;48.506;8.870;2023-03-14T13:32:54;94969.91;;;7.20;88.70
11001;BME280;5553;48.506;8.870;2023-03-14T13:35:26;94980.81;;;7.10;87.79
11001;BME280;5553;48.506;8.870;2023-03-14T13:37:56;94979.44;;;7.01;86.62
11001;BME280;5553;48.506;8.870;2023-03-14T13:40:29;95012.72;;;6.94;87.54
11001;BME280;5553;48.506;8.870;2023-03-14T13:43:04;94997.03;;;6.80;85.98
11001;BME280;5553;48.506;8.870;2023-03-14T13:45:44;95041.56;;;7.00;90.18